Accueil
METAR-TAF:

METAR-TAF

Aéroports :

Anvers, Belgique

Aéroport d'Anvers

latitude: 51-12N, longitude: 004-28E, altitude: 12 m

Observation

Le bulletin a été fait il y a 42 minutes, à 02:50 UTC
Vent 2 kt de est/sud-est
Température 11°C
Humidité 94%
Pression 1011 hPa
Visibilité: 1000 m

METAR: EBAW 190250Z AUTO 12002KT 1000 R11/1500D R29/0900N // NCD 11/10 Q1011

Heure: 05:32 (03:32 UTC)

Prévision

Le bulletin a été fait il y a 1 heure et 22 minutes, à 02:10 UTC
Prévision valable du 19 à 03 UTC au 19 à 12 UTC
Vent 3 kt de sud-est
Visibilité: 3000 m
brume
Probabilité 30% :
Temporairement
du 19 à 03 UTC au 19 à 06 UTC
Visibilité: 0800 m
bancs de brouillard
Evoluant progressivement
du 19 à 06 UTC au 19 à 08 UTC
Visibilité 10 km ou plus

TAF: EBAW 190210Z 1903/1912 13003KT 3000 BR NSC PROB30 TEMPO 1903/1906 0800 BCFG BECMG 1906/1908 9999 NSW

Observations et prévisions météorologiques de plus de 4000 aéroports (messages METAR et TAF).

Les stations disponibles sont représentées par des disques jaunes et rouges sur la carte.

Passer la souris dessus pour voir le nom de la station.

Cliquer dessus pour voir les observations et prévisions météorologiques.

Pour changer de carte: cliquez sur les boutons verts avec une croix noire pour zoomer, sur le bouton vert avec un tiret pour effectuer un zoom arrière, ou sur les flèches vertes pour les cartes adjacentes.


METAR-TAF: